»·PEaware :: N513KQ KBAM-KBAB

N513KQ :: KBAM-KBAB

FLIGHT INFORMATION

Flight Status: Arrived
Operator: Privately registered:
United States
More flights under this callsign
Pilot: Stefan D. (14429)
Aircraft: SOCATA TBM-900
(TBM9)
More flights by this aircraft type
Origin: KBAM Battle Mountain
United States
Destination: KBAB Beale AFB
United States
More flights between these airports :: More routes between these airports
Route: VFR
File this flight plan on PilotEdge
Remarks:
Altitude:
(Current/Filed)
26,000ft
Speed:
(Current/Filed)
300kts
Departed: 09-Mar-19 12:40 AM
Arrived: 09-Mar-19 01:35 AM
Distance/Time
Traveled:
227nm/0:55
Distance/Time
To Go:
Arrived

Flight Plot

Page will automatically refresh every two minutes.

Flight plan parsing failed; only flown route is shown


Map Options




Map Legend


Flown Route
Filed Route
Departure Airport
Arrival Airport
Navaid (VOR, NDB)
Fix

Horizontal Profiles

Position Reports

Time Latitude Longitude Heading Altitude Ground
Speed
09-Mar-19 00:33 40.607167 -116.873680 263 4535ft 0kts
09-Mar-19 00:34 40.607167 -116.873680 263 4535ft 0kts
09-Mar-19 00:35 40.607167 -116.873680 263 4535ft 0kts
09-Mar-19 00:36 40.606572 -116.874314 173 4535ft 11kts
09-Mar-19 00:37 40.605589 -116.874387 194 4535ft 11kts
09-Mar-19 00:38 40.600777 -116.874757 64 4535ft 19kts
09-Mar-19 00:39 40.618068 -116.842530 92 5579ft 145kts
09-Mar-19 00:40 40.591748 -116.848005 278 7666ft 156kts
09-Mar-19 00:41 40.588977 -116.907116 250 9682ft 160kts
09-Mar-19 00:42 40.572152 -116.965523 248 11487ft 165kts
09-Mar-19 00:43 40.554408 -117.025504 248 13292ft 172kts
09-Mar-19 00:44 40.536049 -117.087415 248 15340ft 175kts
09-Mar-19 00:45 40.516488 -117.153240 248 16536ft 217kts
09-Mar-19 00:46 40.489673 -117.243168 248 16513ft 268kts
09-Mar-19 00:47 40.459750 -117.343149 248 16503ft 281kts
09-Mar-19 00:48 40.429163 -117.444977 248 16500ft 284kts
09-Mar-19 00:49 40.398207 -117.547644 248 16500ft 284kts
09-Mar-19 00:50 40.367197 -117.650091 247 16500ft 284kts
09-Mar-19 00:51 40.336695 -117.750482 247 16500ft 285kts
09-Mar-19 00:52 40.305540 -117.852632 247 16500ft 285kts
09-Mar-19 00:53 40.274195 -117.955019 247 16499ft 285kts
09-Mar-19 00:54 40.242705 -118.057488 247 16500ft 285kts
09-Mar-19 00:55 40.211185 -118.159666 247 16500ft 285kts
09-Mar-19 00:56 40.179633 -118.261560 247 16500ft 285kts
09-Mar-19 00:57 40.147984 -118.363387 247 16500ft 285kts
09-Mar-19 00:58 40.116450 -118.464467 247 16500ft 285kts
09-Mar-19 00:59 40.084555 -118.566321 247 16500ft 285kts
09-Mar-19 01:00 40.052947 -118.666888 247 16500ft 285kts
09-Mar-19 01:01 40.021795 -118.765638 247 16500ft 285kts
09-Mar-19 01:02 39.990181 -118.865497 247 16500ft 285kts
09-Mar-19 01:03 39.958481 -118.965265 247 16500ft 285kts
09-Mar-19 01:04 39.927629 -119.062015 247 16500ft 285kts
09-Mar-19 01:05 39.896611 -119.158947 247 16500ft 285kts
09-Mar-19 01:06 39.865967 -119.254373 247 16500ft 285kts
09-Mar-19 01:07 39.835156 -119.349990 247 16500ft 285kts
09-Mar-19 01:08 39.804292 -119.445444 247 16500ft 285kts
09-Mar-19 01:09 39.773367 -119.540763 247 16499ft 285kts
09-Mar-19 01:10 39.742290 -119.636221 247 16500ft 285kts
09-Mar-19 01:11 39.712926 -119.726121 246 16500ft 285kts
09-Mar-19 01:12 39.682146 -119.820048 246 16500ft 285kts
09-Mar-19 01:14 39.651745 -119.912513 246 16500ft 285kts
09-Mar-19 01:15 39.620971 -120.005795 246 16500ft 285kts
09-Mar-19 01:16 39.589889 -120.099702 246 16500ft 285kts
09-Mar-19 01:17 39.558674 -120.193698 246 16500ft 285kts
09-Mar-19 01:18 39.527338 -120.287744 246 16500ft 285kts
09-Mar-19 01:19 39.495904 -120.381775 246 16500ft 285kts
09-Mar-19 01:20 39.464348 -120.475854 246 16500ft 285kts
09-Mar-19 01:21 39.432686 -120.569939 246 16500ft 285kts
09-Mar-19 01:22 39.401698 -120.661725 246 16500ft 285kts
09-Mar-19 01:23 39.371683 -120.750346 246 16499ft 284kts
09-Mar-19 01:24 39.340031 -120.843504 246 16500ft 284kts
09-Mar-19 01:25 39.309009 -120.934515 246 16500ft 285kts
09-Mar-19 01:26 39.279234 -121.021595 246 16446ft 219kts
09-Mar-19 01:27 39.256741 -121.087221 246 12409ft 209kts
09-Mar-19 01:28 39.233221 -121.155633 246 8320ft 213kts
09-Mar-19 01:29 39.210759 -121.220853 246 6553ft 191kts
09-Mar-19 01:30 39.189669 -121.281959 246 4656ft 187kts
09-Mar-19 01:31 39.168821 -121.342237 246 3074ft 170kts
09-Mar-19 01:32 39.148555 -121.390721 204 1426ft 151kts
09-Mar-19 01:32 39.118775 -121.406541 212 1054ft 129kts
09-Mar-19 01:34 39.129257 -121.433670 342 114ft 68kts
09-Mar-19 01:35 39.132847 -121.432418 71 114ft 16kts
09-Mar-19 01:35 39.136208 -121.431273 341 114ft 21kts
09-Mar-19 01:36 39.140760 -121.431333 108 114ft 14kts
09-Mar-19 01:38 39.140800 -121.431047 71 114ft 0kts
09-Mar-19 01:38 39.140800 -121.431047 71 114ft 0kts
09-Mar-19 01:39 39.140800 -121.431047 71 114ft 0kts
09-Mar-19 01:41 39.140800 -121.431047 71 114ft 0kts
09-Mar-19 01:41 39.140800 -121.431047 71 114ft 0kts
09-Mar-19 01:42 39.140800 -121.431047 71 114ft 0kts
09-Mar-19 01:43 39.140800 -121.431047 71 114ft 0kts
09-Mar-19 01:44 39.140800 -121.431047 71 114ft 0kts

Navigation Log

Ident Type
Flight plan parsing failed, navigation log unavailable